sensor_id;sensor_type;location;lat;lon;timestamp;P1;durP1;ratioP1;P2;durP2;ratioP2
8708;SDS011;4391;48.678;9.280;2023-07-13T00:01:03;5.37;;;1.20;;
8708;SDS011;4391;48.678;9.280;2023-07-13T00:03:31;3.33;;;1.15;;
8708;SDS011;4391;48.678;9.280;2023-07-13T00:06:00;4.82;;;1.27;;
8708;SDS011;4391;48.678;9.280;2023-07-13T00:10:59;4.13;;;1.10;;
8708;SDS011;4391;48.678;9.280;2023-07-13T00:13:26;3.40;;;1.00;;
8708;SDS011;4391;48.678;9.280;2023-07-13T00:15:53;3.17;;;1.00;;
8708;SDS011;4391;48.678;9.280;2023-07-13T00:18:21;3.28;;;1.20;;
8708;SDS011;4391;48.678;9.280;2023-07-13T00:20:48;3.45;;;1.13;;
8708;SDS011;4391;48.678;9.280;2023-07-13T00:23:15;4.80;;;1.15;;
8708;SDS011;4391;48.678;9.280;2023-07-13T00:25:44;2.10;;;0.67;;
8708;SDS011;4391;48.678;9.280;2023-07-13T00:28:11;2.72;;;1.02;;
8708;SDS011;4391;48.678;9.280;2023-07-13T00:30:38;2.63;;;0.90;;
8708;SDS011;4391;48.678;9.280;2023-07-13T00:33:05;3.05;;;1.05;;
8708;SDS011;4391;48.678;9.280;2023-07-13T00:35:32;2.67;;;1.05;;
8708;SDS011;4391;48.678;9.280;2023-07-13T00:38:00;3.43;;;1.00;;
8708;SDS011;4391;48.678;9.280;2023-07-13T00:40:27;2.97;;;0.90;;
8708;SDS011;4391;48.678;9.280;2023-07-13T00:42:57;3.00;;;0.90;;
8708;SDS011;4391;48.678;9.280;2023-07-13T00:48:36;2.65;;;1.00;;
8708;SDS011;4391;48.678;9.280;2023-07-13T00:51:04;2.23;;;0.73;;
8708;SDS011;4391;48.678;9.280;2023-07-13T00:53:31;3.15;;;0.90;;
8708;SDS011;4391;48.678;9.280;2023-07-13T00:55:59;2.80;;;1.05;;
8708;SDS011;4391;48.678;9.280;2023-07-13T00:58:29;2.47;;;0.85;;
8708;SDS011;4391;48.678;9.280;2023-07-13T01:00:56;2.13;;;0.93;;
8708;SDS011;4391;48.678;9.280;2023-07-13T01:03:23;2.40;;;1.00;;
8708;SDS011;4391;48.678;9.280;2023-07-13T01:05:50;5.05;;;1.13;;
8708;SDS011;4391;48.678;9.280;2023-07-13T01:08:18;2.95;;;0.90;;
8708;SDS011;4391;48.678;9.280;2023-07-13T01:10:53;3.17;;;0.80;;
8708;SDS011;4391;48.678;9.280;2023-07-13T01:13:21;2.72;;;1.00;;
8708;SDS011;4391;48.678;9.280;2023-07-13T01:15:50;3.30;;;1.37;;
8708;SDS011;4391;48.678;9.280;2023-07-13T01:18:20;2.50;;;0.98;;
8708;SDS011;4391;48.678;9.280;2023-07-13T01:20:54;3.22;;;0.90;;
8708;SDS011;4391;48.678;9.280;2023-07-13T01:23:22;2.67;;;1.25;;
8708;SDS011;4391;48.678;9.280;2023-07-13T01:25:50;2.13;;;0.93;;
8708;SDS011;4391;48.678;9.280;2023-07-13T01:28:18;2.30;;;0.93;;
8708;SDS011;4391;48.678;9.280;2023-07-13T01:30:45;3.90;;;1.00;;
8708;SDS011;4391;48.678;9.280;2023-07-13T01:33:14;4.50;;;1.17;;
8708;SDS011;4391;48.678;9.280;2023-07-13T01:35:42;2.97;;;0.88;;
8708;SDS011;4391;48.678;9.280;2023-07-13T01:38:11;2.78;;;1.02;;
8708;SDS011;4391;48.678;9.280;2023-07-13T01:40:40;3.20;;;1.00;;
8708;SDS011;4391;48.678;9.280;2023-07-13T01:43:07;3.20;;;1.00;;
8708;SDS011;4391;48.678;9.280;2023-07-13T01:45:34;2.63;;;1.00;;
8708;SDS011;4391;48.678;9.280;2023-07-13T01:48:01;2.85;;;1.10;;
8708;SDS011;4391;48.678;9.280;2023-07-13T01:50:28;3.95;;;0.80;;
8708;SDS011;4391;48.678;9.280;2023-07-13T01:52:55;3.60;;;0.80;;
8708;SDS011;4391;48.678;9.280;2023-07-13T01:55:23;2.72;;;0.80;;
8708;SDS011;4391;48.678;9.280;2023-07-13T01:57:50;3.17;;;0.70;;
8708;SDS011;4391;48.678;9.280;2023-07-13T02:00:17;9.30;;;1.00;;
8708;SDS011;4391;48.678;9.280;2023-07-13T02:02:44;3.42;;;0.90;;
8708;SDS011;4391;48.678;9.280;2023-07-13T02:05:11;3.67;;;1.00;;
8708;SDS011;4391;48.678;9.280;2023-07-13T02:07:39;2.65;;;0.90;;
8708;SDS011;4391;48.678;9.280;2023-07-13T02:10:06;2.88;;;0.98;;
8708;SDS011;4391;48.678;9.280;2023-07-13T02:12:37;4.30;;;1.20;;
8708;SDS011;4391;48.678;9.280;2023-07-13T02:15:04;3.63;;;1.25;;
8708;SDS011;4391;48.678;9.280;2023-07-13T02:17:33;2.73;;;0.90;;
8708;SDS011;4391;48.678;9.280;2023-07-13T02:20:00;2.60;;;0.73;;
8708;SDS011;4391;48.678;9.280;2023-07-13T02:22:28;4.45;;;0.95;;
8708;SDS011;4391;48.678;9.280;2023-07-13T02:24:55;2.15;;;0.80;;
8708;SDS011;4391;48.678;9.280;2023-07-13T02:27:22;2.08;;;0.90;;
8708;SDS011;4391;48.678;9.280;2023-07-13T02:29:50;5.17;;;0.83;;
8708;SDS011;4391;48.678;9.280;2023-07-13T02:32:17;1.98;;;0.70;;
8708;SDS011;4391;48.678;9.280;2023-07-13T02:34:44;3.55;;;1.20;;
8708;SDS011;4391;48.678;9.280;2023-07-13T02:37:11;2.63;;;0.90;;
8708;SDS011;4391;48.678;9.280;2023-07-13T02:39:38;2.85;;;1.00;;
8708;SDS011;4391;48.678;9.280;2023-07-13T02:42:05;2.30;;;0.70;;
8708;SDS011;4391;48.678;9.280;2023-07-13T02:44:32;2.60;;;0.85;;
8708;SDS011;4391;48.678;9.280;2023-07-13T02:47:01;2.70;;;0.90;;
8708;SDS011;4391;48.678;9.280;2023-07-13T02:49:28;2.40;;;0.90;;
8708;SDS011;4391;48.678;9.280;2023-07-13T02:51:54;3.00;;;0.90;;
8708;SDS011;4391;48.678;9.280;2023-07-13T02:54:21;1.93;;;0.70;;
8708;SDS011;4391;48.678;9.280;2023-07-13T02:56:48;1.77;;;0.63;;
8708;SDS011;4391;48.678;9.280;2023-07-13T02:59:15;2.90;;;0.85;;
8708;SDS011;4391;48.678;9.280;2023-07-13T03:01:42;3.67;;;1.05;;
8708;SDS011;4391;48.678;9.280;2023-07-13T03:04:10;3.10;;;1.00;;
8708;SDS011;4391;48.678;9.280;2023-07-13T03:06:37;2.20;;;0.93;;
8708;SDS011;4391;48.678;9.280;2023-07-13T03:09:04;2.83;;;0.82;;
8708;SDS011;4391;48.678;9.280;2023-07-13T03:11:31;3.00;;;0.77;;
8708;SDS011;4391;48.678;9.280;2023-07-13T03:13:58;1.90;;;0.60;;
8708;SDS011;4391;48.678;9.280;2023-07-13T03:16:25;2.30;;;0.90;;
8708;SDS011;4391;48.678;9.280;2023-07-13T03:18:52;2.73;;;0.80;;
8708;SDS011;4391;48.678;9.280;2023-07-13T03:21:20;3.05;;;0.70;;
8708;SDS011;4391;48.678;9.280;2023-07-13T03:23:47;2.60;;;0.90;;
8708;SDS011;4391;48.678;9.280;2023-07-13T03:26:15;3.42;;;0.85;;
8708;SDS011;4391;48.678;9.280;2023-07-13T03:28:43;3.10;;;0.75;;
8708;SDS011;4391;48.678;9.280;2023-07-13T03:31:11;2.07;;;0.60;;
8708;SDS011;4391;48.678;9.280;2023-07-13T03:33:40;2.85;;;0.70;;
8708;SDS011;4391;48.678;9.280;2023-07-13T03:36:10;4.20;;;1.20;;
8708;SDS011;4391;48.678;9.280;2023-07-13T03:38:40;5.53;;;1.65;;
8708;SDS011;4391;48.678;9.280;2023-07-13T03:41:07;3.40;;;1.00;;
8708;SDS011;4391;48.678;9.280;2023-07-13T03:43:34;3.07;;;0.90;;
8708;SDS011;4391;48.678;9.280;2023-07-13T03:46:00;2.72;;;0.80;;
8708;SDS011;4391;48.678;9.280;2023-07-13T03:48:27;2.47;;;0.93;;
8708;SDS011;4391;48.678;9.280;2023-07-13T03:50:54;3.72;;;1.00;;
8708;SDS011;4391;48.678;9.280;2023-07-13T03:53:21;2.42;;;0.80;;
8708;SDS011;4391;48.678;9.280;2023-07-13T03:55:49;2.40;;;0.80;;
8708;SDS011;4391;48.678;9.280;2023-07-13T03:58:23;2.50;;;0.73;;
8708;SDS011;4391;48.678;9.280;2023-07-13T04:00:54;3.42;;;0.70;;
8708;SDS011;4391;48.678;9.280;2023-07-13T04:03:22;3.40;;;1.00;;
8708;SDS011;4391;48.678;9.280;2023-07-13T04:05:49;2.22;;;0.88;;
8708;SDS011;4391;48.678;9.280;2023-07-13T04:08:16;2.53;;;0.63;;
8708;SDS011;4391;48.678;9.280;2023-07-13T04:10:43;2.05;;;0.80;;
8708;SDS011;4391;48.678;9.280;2023-07-13T04:13:11;4.35;;;1.00;;
8708;SDS011;4391;48.678;9.280;2023-07-13T04:15:39;2.42;;;0.80;;
8708;SDS011;4391;48.678;9.280;2023-07-13T04:18:06;2.70;;;1.10;;
8708;SDS011;4391;48.678;9.280;2023-07-13T04:20:34;1.83;;;0.60;;
8708;SDS011;4391;48.678;9.280;2023-07-13T04:23:01;2.03;;;0.80;;
8708;SDS011;4391;48.678;9.280;2023-07-13T04:25:28;2.42;;;0.73;;
8708;SDS011;4391;48.678;9.280;2023-07-13T04:27:55;4.10;;;0.90;;
8708;SDS011;4391;48.678;9.280;2023-07-13T04:30:23;2.75;;;0.90;;
8708;SDS011;4391;48.678;9.280;2023-07-13T04:32:51;3.17;;;0.90;;
8708;SDS011;4391;48.678;9.280;2023-07-13T04:35:18;4.43;;;0.80;;
8708;SDS011;4391;48.678;9.280;2023-07-13T04:37:47;2.55;;;0.70;;
8708;SDS011;4391;48.678;9.280;2023-07-13T04:40:16;2.55;;;0.52;;
8708;SDS011;4391;48.678;9.280;2023-07-13T04:42:43;4.68;;;0.90;;
8708;SDS011;4391;48.678;9.280;2023-07-13T04:45:10;3.97;;;1.10;;
8708;SDS011;4391;48.678;9.280;2023-07-13T04:47:39;2.55;;;0.80;;
8708;SDS011;4391;48.678;9.280;2023-07-13T04:50:07;1.75;;;0.60;;
8708;SDS011;4391;48.678;9.280;2023-07-13T04:52:36;5.05;;;0.90;;
8708;SDS011;4391;48.678;9.280;2023-07-13T04:55:03;3.42;;;0.90;;
8708;SDS011;4391;48.678;9.280;2023-07-13T04:57:31;2.90;;;0.80;;
8708;SDS011;4391;48.678;9.280;2023-07-13T04:59:58;2.65;;;0.90;;
8708;SDS011;4391;48.678;9.280;2023-07-13T05:02:26;5.05;;;0.80;;
8708;SDS011;4391;48.678;9.280;2023-07-13T05:04:57;4.13;;;0.80;;
8708;SDS011;4391;48.678;9.280;2023-07-13T05:07:28;3.17;;;0.77;;
8708;SDS011;4391;48.678;9.280;2023-07-13T05:10:00;3.33;;;1.07;;
8708;SDS011;4391;48.678;9.280;2023-07-13T05:12:29;3.50;;;0.95;;
8708;SDS011;4391;48.678;9.280;2023-07-13T05:14:58;4.13;;;0.80;;
8708;SDS011;4391;48.678;9.280;2023-07-13T05:17:25;3.72;;;1.00;;
8708;SDS011;4391;48.678;9.280;2023-07-13T05:19:53;4.30;;;1.10;;
8708;SDS011;4391;48.678;9.280;2023-07-13T05:22:23;3.50;;;1.00;;
8708;SDS011;4391;48.678;9.280;2023-07-13T05:24:50;2.65;;;0.75;;
8708;SDS011;4391;48.678;9.280;2023-07-13T05:27:20;5.80;;;1.25;;
8708;SDS011;4391;48.678;9.280;2023-07-13T05:29:48;4.28;;;1.10;;
8708;SDS011;4391;48.678;9.280;2023-07-13T05:32:17;6.95;;;0.90;;
8708;SDS011;4391;48.678;9.280;2023-07-13T05:34:48;3.87;;;0.97;;
8708;SDS011;4391;48.678;9.280;2023-07-13T05:37:18;3.55;;;0.93;;
8708;SDS011;4391;48.678;9.280;2023-07-13T05:39:48;3.25;;;1.17;;
8708;SDS011;4391;48.678;9.280;2023-07-13T05:42:15;3.10;;;0.80;;
8708;SDS011;4391;48.678;9.280;2023-07-13T05:44:43;4.10;;;1.10;;
8708;SDS011;4391;48.678;9.280;2023-07-13T05:47:11;3.27;;;1.00;;
8708;SDS011;4391;48.678;9.280;2023-07-13T05:49:39;4.47;;;0.80;;
8708;SDS011;4391;48.678;9.280;2023-07-13T05:52:07;5.07;;;1.00;;
8708;SDS011;4391;48.678;9.280;2023-07-13T05:54:37;6.13;;;1.10;;
8708;SDS011;4391;48.678;9.280;2023-07-13T05:57:06;6.68;;;1.20;;
8708;SDS011;4391;48.678;9.280;2023-07-13T05:59:37;4.90;;;1.03;;
8708;SDS011;4391;48.678;9.280;2023-07-13T06:02:07;3.63;;;1.05;;
8708;SDS011;4391;48.678;9.280;2023-07-13T06:04:35;3.50;;;1.00;;
8708;SDS011;4391;48.678;9.280;2023-07-13T06:07:03;4.72;;;0.98;;
8708;SDS011;4391;48.678;9.280;2023-07-13T06:09:30;4.45;;;1.20;;
8708;SDS011;4391;48.678;9.280;2023-07-13T06:11:57;4.50;;;1.00;;
8708;SDS011;4391;48.678;9.280;2023-07-13T06:14:26;4.13;;;0.90;;
8708;SDS011;4391;48.678;9.280;2023-07-13T06:16:53;4.85;;;1.10;;
8708;SDS011;4391;48.678;9.280;2023-07-13T06:19:19;4.18;;;1.10;;
8708;SDS011;4391;48.678;9.280;2023-07-13T06:21:46;4.50;;;1.02;;
8708;SDS011;4391;48.678;9.280;2023-07-13T06:24:14;6.90;;;1.10;;
8708;SDS011;4391;48.678;9.280;2023-07-13T06:26:41;5.43;;;1.30;;
8708;SDS011;4391;48.678;9.280;2023-07-13T06:29:07;4.75;;;1.40;;
8708;SDS011;4391;48.678;9.280;2023-07-13T06:31:36;4.38;;;0.90;;
8708;SDS011;4391;48.678;9.280;2023-07-13T06:34:03;3.88;;;1.00;;
8708;SDS011;4391;48.678;9.280;2023-07-13T06:36:30;3.60;;;0.93;;
8708;SDS011;4391;48.678;9.280;2023-07-13T06:38:57;3.53;;;1.00;;
8708;SDS011;4391;48.678;9.280;2023-07-13T06:41:23;4.57;;;1.30;;
8708;SDS011;4391;48.678;9.280;2023-07-13T06:43:51;4.63;;;1.10;;
8708;SDS011;4391;48.678;9.280;2023-07-13T06:46:19;6.00;;;1.23;;
8708;SDS011;4391;48.678;9.280;2023-07-13T06:48:48;8.77;;;1.80;;
8708;SDS011;4391;48.678;9.280;2023-07-13T06:51:15;12.52;;;2.30;;
8708;SDS011;4391;48.678;9.280;2023-07-13T06:53:42;8.52;;;2.28;;
8708;SDS011;4391;48.678;9.280;2023-07-13T06:56:09;10.35;;;1.90;;
8708;SDS011;4391;48.678;9.280;2023-07-13T06:58:37;9.38;;;2.20;;
8708;SDS011;4391;48.678;9.280;2023-07-13T07:01:04;14.27;;;2.23;;
8708;SDS011;4391;48.678;9.280;2023-07-13T07:03:31;10.82;;;2.50;;
8708;SDS011;4391;48.678;9.280;2023-07-13T07:06:01;11.48;;;2.30;;
8708;SDS011;4391;48.678;9.280;2023-07-13T07:08:33;10.85;;;2.05;;
8708;SDS011;4391;48.678;9.280;2023-07-13T07:11:00;15.63;;;2.22;;
8708;SDS011;4391;48.678;9.280;2023-07-13T07:13:27;13.27;;;1.73;;
8708;SDS011;4391;48.678;9.280;2023-07-13T07:15:55;9.95;;;1.65;;
8708;SDS011;4391;48.678;9.280;2023-07-13T07:18:22;4.25;;;1.20;;
8708;SDS011;4391;48.678;9.280;2023-07-13T07:20:49;7.57;;;1.33;;
8708;SDS011;4391;48.678;9.280;2023-07-13T07:23:17;9.70;;;1.65;;
8708;SDS011;4391;48.678;9.280;2023-07-13T07:25:44;10.67;;;1.40;;
8708;SDS011;4391;48.678;9.280;2023-07-13T07:28:12;8.73;;;1.02;;
8708;SDS011;4391;48.678;9.280;2023-07-13T07:30:43;9.30;;;1.38;;
8708;SDS011;4391;48.678;9.280;2023-07-13T07:33:09;7.05;;;1.00;;
8708;SDS011;4391;48.678;9.280;2023-07-13T07:35:36;5.50;;;1.30;;
8708;SDS011;4391;48.678;9.280;2023-07-13T07:38:03;4.40;;;1.10;;
8708;SDS011;4391;48.678;9.280;2023-07-13T07:40:32;3.90;;;1.10;;
8708;SDS011;4391;48.678;9.280;2023-07-13T07:43:03;5.85;;;1.10;;
8708;SDS011;4391;48.678;9.280;2023-07-13T07:45:30;5.97;;;1.10;;
8708;SDS011;4391;48.678;9.280;2023-07-13T07:47:57;3.95;;;1.13;;
8708;SDS011;4391;48.678;9.280;2023-07-13T07:50:24;4.30;;;1.10;;
8708;SDS011;4391;48.678;9.280;2023-07-13T07:52:51;4.65;;;0.93;;
8708;SDS011;4391;48.678;9.280;2023-07-13T07:55:18;7.15;;;1.13;;
8708;SDS011;4391;48.678;9.280;2023-07-13T07:57:46;6.93;;;1.15;;
8708;SDS011;4391;48.678;9.280;2023-07-13T08:00:14;5.13;;;1.02;;
8708;SDS011;4391;48.678;9.280;2023-07-13T08:02:41;4.87;;;1.27;;
8708;SDS011;4391;48.678;9.280;2023-07-13T08:05:09;7.70;;;1.00;;
8708;SDS011;4391;48.678;9.280;2023-07-13T08:07:36;5.70;;;1.08;;
8708;SDS011;4391;48.678;9.280;2023-07-13T08:10:04;5.45;;;0.95;;
8708;SDS011;4391;48.678;9.280;2023-07-13T08:12:33;6.60;;;1.23;;
8708;SDS011;4391;48.678;9.280;2023-07-13T08:15:02;6.60;;;0.90;;
8708;SDS011;4391;48.678;9.280;2023-07-13T08:17:29;7.13;;;1.00;;
8708;SDS011;4391;48.678;9.280;2023-07-13T08:19:57;5.30;;;1.10;;
8708;SDS011;4391;48.678;9.280;2023-07-13T08:22:24;4.18;;;0.90;;
8708;SDS011;4391;48.678;9.280;2023-07-13T08:24:50;4.25;;;1.10;;
8708;SDS011;4391;48.678;9.280;2023-07-13T08:27:21;6.17;;;1.20;;
8708;SDS011;4391;48.678;9.280;2023-07-13T08:29:49;4.28;;;1.13;;
8708;SDS011;4391;48.678;9.280;2023-07-13T08:32:17;6.97;;;1.00;;
8708;SDS011;4391;48.678;9.280;2023-07-13T08:34:44;6.53;;;1.63;;
8708;SDS011;4391;48.678;9.280;2023-07-13T08:37:11;3.95;;;1.10;;
8708;SDS011;4391;48.678;9.280;2023-07-13T08:39:38;5.33;;;1.30;;
8708;SDS011;4391;48.678;9.280;2023-07-13T08:42:07;3.50;;;1.35;;
8708;SDS011;4391;48.678;9.280;2023-07-13T08:44:43;5.70;;;1.17;;
8708;SDS011;4391;48.678;9.280;2023-07-13T08:47:17;2.90;;;0.85;;
8708;SDS011;4391;48.678;9.280;2023-07-13T08:49:47;3.95;;;1.20;;
8708;SDS011;4391;48.678;9.280;2023-07-13T08:52:16;4.10;;;1.13;;
8708;SDS011;4391;48.678;9.280;2023-07-13T08:54:52;4.82;;;1.13;;
8708;SDS011;4391;48.678;9.280;2023-07-13T08:57:24;5.10;;;1.30;;
8708;SDS011;4391;48.678;9.280;2023-07-13T08:59:55;4.50;;;1.08;;
8708;SDS011;4391;48.678;9.280;2023-07-13T09:02:26;4.57;;;1.17;;
8708;SDS011;4391;48.678;9.280;2023-07-13T09:05:03;2.83;;;0.87;;
8708;SDS011;4391;48.678;9.280;2023-07-13T09:10:11;4.78;;;1.00;;
8708;SDS011;4391;48.678;9.280;2023-07-13T09:12:45;4.28;;;1.20;;
8708;SDS011;4391;48.678;9.280;2023-07-13T09:15:26;3.83;;;1.15;;
8708;SDS011;4391;48.678;9.280;2023-07-13T09:17:59;3.20;;;0.90;;
8708;SDS011;4391;48.678;9.280;2023-07-13T09:20:31;3.75;;;1.13;;
8708;SDS011;4391;48.678;9.280;2023-07-13T09:23:00;4.25;;;1.00;;
8708;SDS011;4391;48.678;9.280;2023-07-13T09:25:31;4.40;;;0.90;;
8708;SDS011;4391;48.678;9.280;2023-07-13T09:28:00;4.70;;;1.08;;
8708;SDS011;4391;48.678;9.280;2023-07-13T09:30:36;3.10;;;0.90;;
8708;SDS011;4391;48.678;9.280;2023-07-13T09:33:10;3.80;;;0.90;;
8708;SDS011;4391;48.678;9.280;2023-07-13T09:35:37;2.75;;;1.02;;
8708;SDS011;4391;48.678;9.280;2023-07-13T09:38:10;2.80;;;0.70;;
8708;SDS011;4391;48.678;9.280;2023-07-13T09:43:27;3.47;;;1.23;;
8708;SDS011;4391;48.678;9.280;2023-07-13T09:45:55;4.50;;;0.70;;
8708;SDS011;4391;48.678;9.280;2023-07-13T09:48:23;3.10;;;0.90;;
8708;SDS011;4391;48.678;9.280;2023-07-13T09:50:53;3.38;;;1.17;;
8708;SDS011;4391;48.678;9.280;2023-07-13T09:53:22;5.50;;;1.20;;
8708;SDS011;4391;48.678;9.280;2023-07-13T09:55:49;2.43;;;1.10;;
8708;SDS011;4391;48.678;9.280;2023-07-13T09:58:16;2.72;;;0.90;;
8708;SDS011;4391;48.678;9.280;2023-07-13T10:00:54;2.92;;;1.10;;
8708;SDS011;4391;48.678;9.280;2023-07-13T10:03:26;3.33;;;0.90;;
8708;SDS011;4391;48.678;9.280;2023-07-13T10:05:57;2.35;;;1.10;;
8708;SDS011;4391;48.678;9.280;2023-07-13T10:08:30;4.87;;;0.90;;
8708;SDS011;4391;48.678;9.280;2023-07-13T10:11:08;4.55;;;0.90;;
8708;SDS011;4391;48.678;9.280;2023-07-13T10:13:37;3.08;;;0.95;;
8708;SDS011;4391;48.678;9.280;2023-07-13T10:16:07;2.70;;;0.68;;
8708;SDS011;4391;48.678;9.280;2023-07-13T10:18:39;4.53;;;1.05;;
8708;SDS011;4391;48.678;9.280;2023-07-13T10:21:11;2.40;;;0.80;;
8708;SDS011;4391;48.678;9.280;2023-07-13T10:23:40;5.18;;;1.10;;
8708;SDS011;4391;48.678;9.280;2023-07-13T10:26:10;2.53;;;0.90;;
8708;SDS011;4391;48.678;9.280;2023-07-13T10:28:42;2.42;;;0.85;;
8708;SDS011;4391;48.678;9.280;2023-07-13T10:31:14;3.33;;;0.80;;
8708;SDS011;4391;48.678;9.280;2023-07-13T10:33:43;2.03;;;0.70;;
8708;SDS011;4391;48.678;9.280;2023-07-13T10:36:12;2.80;;;0.90;;
8708;SDS011;4391;48.678;9.280;2023-07-13T10:38:44;2.67;;;0.88;;
8708;SDS011;4391;48.678;9.280;2023-07-13T10:41:14;3.33;;;0.82;;
8708;SDS011;4391;48.678;9.280;2023-07-13T10:43:45;3.08;;;1.00;;
8708;SDS011;4391;48.678;9.280;2023-07-13T10:46:16;2.20;;;0.90;;
8708;SDS011;4391;48.678;9.280;2023-07-13T10:48:46;1.85;;;0.60;;
8708;SDS011;4391;48.678;9.280;2023-07-13T10:51:18;3.08;;;0.90;;
8708;SDS011;4391;48.678;9.280;2023-07-13T10:53:47;2.70;;;0.95;;
8708;SDS011;4391;48.678;9.280;2023-07-13T10:56:34;2.67;;;0.90;;
8708;SDS011;4391;48.678;9.280;2023-07-13T10:59:02;2.43;;;0.73;;
8708;SDS011;4391;48.678;9.280;2023-07-13T11:01:39;2.25;;;0.88;;
8708;SDS011;4391;48.678;9.280;2023-07-13T11:04:10;2.13;;;0.70;;
8708;SDS011;4391;48.678;9.280;2023-07-13T11:06:40;3.15;;;0.75;;
8708;SDS011;4391;48.678;9.280;2023-07-13T11:09:25;2.60;;;0.90;;
8708;SDS011;4391;48.678;9.280;2023-07-13T11:11:58;2.80;;;0.80;;
8708;SDS011;4391;48.678;9.280;2023-07-13T11:14:28;3.13;;;0.88;;
8708;SDS011;4391;48.678;9.280;2023-07-13T11:16:56;1.88;;;0.80;;
8708;SDS011;4391;48.678;9.280;2023-07-13T11:19:37;1.90;;;0.70;;
8708;SDS011;4391;48.678;9.280;2023-07-13T11:22:21;2.28;;;0.80;;
8708;SDS011;4391;48.678;9.280;2023-07-13T11:24:51;3.37;;;0.93;;
8708;SDS011;4391;48.678;9.280;2023-07-13T11:27:37;2.25;;;0.80;;
8708;SDS011;4391;48.678;9.280;2023-07-13T11:30:07;3.58;;;0.95;;
8708;SDS011;4391;48.678;9.280;2023-07-13T11:32:43;2.33;;;0.73;;
8708;SDS011;4391;48.678;9.280;2023-07-13T11:35:13;1.88;;;0.60;;
8708;SDS011;4391;48.678;9.280;2023-07-13T11:37:45;2.50;;;0.70;;
8708;SDS011;4391;48.678;9.280;2023-07-13T11:40:13;2.78;;;0.90;;
8708;SDS011;4391;48.678;9.280;2023-07-13T11:42:41;3.70;;;0.82;;
8708;SDS011;4391;48.678;9.280;2023-07-13T11:45:18;1.95;;;0.80;;
8708;SDS011;4391;48.678;9.280;2023-07-13T11:47:48;1.95;;;0.63;;
8708;SDS011;4391;48.678;9.280;2023-07-13T11:50:20;2.67;;;0.90;;
8708;SDS011;4391;48.678;9.280;2023-07-13T11:52:48;2.10;;;0.80;;
8708;SDS011;4391;48.678;9.280;2023-07-13T11:55:17;2.28;;;0.85;;
8708;SDS011;4391;48.678;9.280;2023-07-13T11:57:45;4.32;;;1.05;;
8708;SDS011;4391;48.678;9.280;2023-07-13T12:00:16;2.55;;;0.90;;
8708;SDS011;4391;48.678;9.280;2023-07-13T12:02:46;2.80;;;0.80;;
8708;SDS011;4391;48.678;9.280;2023-07-13T12:05:15;5.23;;;1.07;;
8708;SDS011;4391;48.678;9.280;2023-07-13T12:07:45;4.70;;;0.90;;
8708;SDS011;4391;48.678;9.280;2023-07-13T12:10:17;6.18;;;0.95;;
8708;SDS011;4391;48.678;9.280;2023-07-13T12:12:46;3.25;;;1.00;;
8708;SDS011;4391;48.678;9.280;2023-07-13T12:15:14;2.83;;;0.85;;
8708;SDS011;4391;48.678;9.280;2023-07-13T12:17:41;4.17;;;1.03;;
8708;SDS011;4391;48.678;9.280;2023-07-13T12:20:14;3.08;;;1.10;;
8708;SDS011;4391;48.678;9.280;2023-07-13T12:22:50;3.20;;;0.98;;
8708;SDS011;4391;48.678;9.280;2023-07-13T12:25:18;4.68;;;1.10;;
8708;SDS011;4391;48.678;9.280;2023-07-13T12:27:48;3.25;;;1.10;;
8708;SDS011;4391;48.678;9.280;2023-07-13T12:30:27;2.30;;;0.80;;
8708;SDS011;4391;48.678;9.280;2023-07-13T12:32:56;2.45;;;0.90;;
8708;SDS011;4391;48.678;9.280;2023-07-13T12:35:29;3.50;;;1.48;;
8708;SDS011;4391;48.678;9.280;2023-07-13T12:38:01;3.03;;;0.85;;
8708;SDS011;4391;48.678;9.280;2023-07-13T12:40:30;2.85;;;0.82;;
8708;SDS011;4391;48.678;9.280;2023-07-13T12:43:02;3.17;;;0.90;;
8708;SDS011;4391;48.678;9.280;2023-07-13T12:45:31;4.40;;;0.88;;
8708;SDS011;4391;48.678;9.280;2023-07-13T12:48:04;2.97;;;0.70;;
8708;SDS011;4391;48.678;9.280;2023-07-13T12:50:37;4.10;;;0.98;;
8708;SDS011;4391;48.678;9.280;2023-07-13T12:53:12;6.47;;;0.88;;
8708;SDS011;4391;48.678;9.280;2023-07-13T12:55:43;4.27;;;1.10;;
8708;SDS011;4391;48.678;9.280;2023-07-13T12:58:15;4.28;;;1.02;;
8708;SDS011;4391;48.678;9.280;2023-07-13T13:00:48;4.80;;;1.05;;
8708;SDS011;4391;48.678;9.280;2023-07-13T13:03:21;3.00;;;1.02;;
8708;SDS011;4391;48.678;9.280;2023-07-13T13:05:56;2.45;;;0.90;;
8708;SDS011;4391;48.678;9.280;2023-07-13T13:08:26;3.20;;;1.00;;
8708;SDS011;4391;48.678;9.280;2023-07-13T13:10:53;3.47;;;1.00;;
8708;SDS011;4391;48.678;9.280;2023-07-13T13:13:20;5.07;;;1.20;;
8708;SDS011;4391;48.678;9.280;2023-07-13T13:15:47;5.38;;;0.70;;
8708;SDS011;4391;48.678;9.280;2023-07-13T13:18:15;4.57;;;0.98;;
8708;SDS011;4391;48.678;9.280;2023-07-13T13:20:43;3.67;;;1.00;;
8708;SDS011;4391;48.678;9.280;2023-07-13T13:23:11;3.75;;;1.30;;
8708;SDS011;4391;48.678;9.280;2023-07-13T13:25:44;3.40;;;1.20;;
8708;SDS011;4391;48.678;9.280;2023-07-13T13:28:13;5.13;;;1.17;;
8708;SDS011;4391;48.678;9.280;2023-07-13T13:30:42;6.43;;;1.05;;
8708;SDS011;4391;48.678;9.280;2023-07-13T13:33:10;3.77;;;1.10;;
8708;SDS011;4391;48.678;9.280;2023-07-13T13:35:39;2.92;;;1.00;;
8708;SDS011;4391;48.678;9.280;2023-07-13T13:38:11;3.85;;;1.15;;
8708;SDS011;4391;48.678;9.280;2023-07-13T13:40:39;3.35;;;0.98;;
8708;SDS011;4391;48.678;9.280;2023-07-13T13:43:15;2.72;;;1.10;;
8708;SDS011;4391;48.678;9.280;2023-07-13T13:45:42;3.40;;;1.27;;
8708;SDS011;4391;48.678;9.280;2023-07-13T13:48:13;3.92;;;1.30;;
8708;SDS011;4391;48.678;9.280;2023-07-13T13:50:41;6.00;;;1.30;;
8708;SDS011;4391;48.678;9.280;2023-07-13T13:53:09;4.43;;;1.20;;
8708;SDS011;4391;48.678;9.280;2023-07-13T13:55:37;3.35;;;0.93;;
8708;SDS011;4391;48.678;9.280;2023-07-13T13:58:06;3.73;;;1.40;;
8708;SDS011;4391;48.678;9.280;2023-07-13T14:00:35;6.65;;;1.20;;
8708;SDS011;4391;48.678;9.280;2023-07-13T14:03:02;4.97;;;1.35;;
8708;SDS011;4391;48.678;9.280;2023-07-13T14:05:31;6.68;;;1.42;;
8708;SDS011;4391;48.678;9.280;2023-07-13T14:07:58;4.03;;;1.20;;
8708;SDS011;4391;48.678;9.280;2023-07-13T14:10:25;4.93;;;1.33;;
8708;SDS011;4391;48.678;9.280;2023-07-13T14:12:54;4.80;;;1.35;;
8708;SDS011;4391;48.678;9.280;2023-07-13T14:15:23;2.58;;;0.80;;
8708;SDS011;4391;48.678;9.280;2023-07-13T14:17:53;3.33;;;1.15;;
8708;SDS011;4391;48.678;9.280;2023-07-13T14:20:21;4.35;;;1.10;;
8708;SDS011;4391;48.678;9.280;2023-07-13T14:22:49;4.83;;;1.40;;
8708;SDS011;4391;48.678;9.280;2023-07-13T14:25:18;5.28;;;1.23;;
8708;SDS011;4391;48.678;9.280;2023-07-13T14:27:48;3.08;;;1.00;;
8708;SDS011;4391;48.678;9.280;2023-07-13T14:30:17;3.40;;;1.13;;
8708;SDS011;4391;48.678;9.280;2023-07-13T14:32:45;5.53;;;1.73;;
8708;SDS011;4391;48.678;9.280;2023-07-13T14:35:16;6.83;;;1.40;;
8708;SDS011;4391;48.678;9.280;2023-07-13T14:37:45;7.38;;;1.52;;
8708;SDS011;4391;48.678;9.280;2023-07-13T14:40:13;6.55;;;1.52;;
8708;SDS011;4391;48.678;9.280;2023-07-13T14:42:41;6.55;;;1.10;;
8708;SDS011;4391;48.678;9.280;2023-07-13T14:45:12;4.35;;;1.15;;
8708;SDS011;4391;48.678;9.280;2023-07-13T14:47:40;6.97;;;1.70;;
8708;SDS011;4391;48.678;9.280;2023-07-13T14:50:12;4.85;;;1.10;;
8708;SDS011;4391;48.678;9.280;2023-07-13T14:52:45;4.63;;;1.00;;
8708;SDS011;4391;48.678;9.280;2023-07-13T14:55:14;5.18;;;1.20;;
8708;SDS011;4391;48.678;9.280;2023-07-13T14:57:42;4.90;;;1.33;;
8708;SDS011;4391;48.678;9.280;2023-07-13T15:00:12;4.23;;;1.03;;
8708;SDS011;4391;48.678;9.280;2023-07-13T15:02:41;3.35;;;1.17;;
8708;SDS011;4391;48.678;9.280;2023-07-13T15:05:14;2.80;;;0.90;;
8708;SDS011;4391;48.678;9.280;2023-07-13T15:07:44;5.95;;;1.17;;
8708;SDS011;4391;48.678;9.280;2023-07-13T15:10:12;4.32;;;1.20;;
8708;SDS011;4391;48.678;9.280;2023-07-13T15:12:40;4.37;;;1.37;;
8708;SDS011;4391;48.678;9.280;2023-07-13T15:15:07;6.32;;;0.93;;
8708;SDS011;4391;48.678;9.280;2023-07-13T15:17:35;5.50;;;1.15;;
8708;SDS011;4391;48.678;9.280;2023-07-13T15:20:05;6.22;;;1.10;;
8708;SDS011;4391;48.678;9.280;2023-07-13T15:22:42;3.88;;;1.25;;
8708;SDS011;4391;48.678;9.280;2023-07-13T15:25:11;3.13;;;1.00;;
8708;SDS011;4391;48.678;9.280;2023-07-13T15:27:42;3.47;;;1.10;;
8708;SDS011;4391;48.678;9.280;2023-07-13T15:30:09;4.05;;;1.00;;
8708;SDS011;4391;48.678;9.280;2023-07-13T15:32:37;6.07;;;1.35;;
8708;SDS011;4391;48.678;9.280;2023-07-13T15:35:08;5.45;;;1.30;;
8708;SDS011;4391;48.678;9.280;2023-07-13T15:37:40;4.03;;;1.10;;